Time;durP1;ratioP1;P1;durP2;ratioP2;P2;SDS_P1;SDS_P2;PMS_P1;PMS_P2;Temp;Humidity;BMP_temperature;BMP_pressure;BME280_temperature;BME280_humidity;BME280_pressure;Samples;Min_cycle;Max_cycle;Signal;HPM_P1;HPM_P2
2022/04/29 00:00:24;;;;;;;31.08;29.25;;;9.70;79.00;;;;;;5091491;28;20202;-74
2022/04/29 00:02:52;;;;;;;30.20;28.40;;;9.70;80.60;;;;;;5092370;28;20198;-74
2022/04/29 00:05:19;;;;;;;30.85;28.85;;;9.70;80.00;;;;;;5092104;28;20205;-74
2022/04/29 00:07:48;;;;;;;30.10;28.00;;;9.60;79.70;;;;;;5091982;28;20308;-74
2022/04/29 00:10:16;;;;;;;30.10;28.30;;;9.60;79.40;;;;;;5091384;28;20216;-74
2022/04/29 00:12:46;;;;;;;29.50;27.60;;;9.70;79.00;;;;;;5092043;28;20191;-74
2022/04/29 00:15:14;;;;;;;31.27;29.13;;;9.70;78.90;;;;;;5091983;28;20191;-74
2022/04/29 00:17:41;;;;;;;28.58;26.88;;;9.60;79.70;;;;;;5091994;28;20195;-74
2022/04/29 00:20:10;;;;;;;29.75;28.02;;;9.50;79.90;;;;;;5091507;28;20196;-74
2022/04/29 00:22:37;;;;;;;28.38;26.77;;;9.40;80.20;;;;;;5092002;28;20679;-74
2022/04/29 00:25:07;;;;;;;30.23;28.25;;;9.40;80.30;;;;;;5091433;28;20788;-74
2022/04/29 00:27:34;;;;;;;28.45;26.65;;;9.40;80.60;;;;;;5092019;28;20214;-74
2022/04/29 00:30:02;;;;;;;29.75;28.05;;;9.30;80.70;;;;;;5091322;28;20651;-74
2022/04/29 00:32:28;;;;;;;30.50;28.55;;;9.30;80.70;;;;;;5091686;28;20580;-74
2022/04/29 00:34:55;;;;;;;28.50;26.85;;;9.20;80.90;;;;;;5093240;28;20305;-74
2022/04/29 00:37:22;;;;;;;30.38;28.20;;;9.20;80.90;;;;;;5095833;28;20279;-74
2022/04/29 00:39:49;;;;;;;29.35;27.48;;;9.20;80.90;;;;;;5095193;28;20208;-74
2022/04/29 00:42:21;;;;;;;30.67;28.88;;;9.30;80.60;;;;;;5095394;28;20681;-74
2022/04/29 00:44:48;;;;;;;29.75;27.92;;;9.20;80.50;;;;;;5095720;28;20261;-74
2022/04/29 00:47:18;;;;;;;30.40;28.52;;;9.10;81.20;;;;;;5095641;28;20357;-74
2022/04/29 00:49:46;;;;;;;31.10;29.15;;;9.00;81.50;;;;;;5095070;28;20195;-73
2022/04/29 00:52:15;;;;;;;29.83;27.92;;;8.90;82.00;;;;;;5095664;28;20623;-73
2022/04/29 00:54:50;;;;;;;30.50;28.50;;;8.90;82.10;;;;;;5095320;28;20227;-74
2022/04/29 00:57:38;;;;;;;29.63;27.77;;;8.90;82.30;;;;;;5095359;28;20202;-73
2022/04/29 01:00:08;;;;;;;31.60;29.60;;;8.90;82.40;;;;;;5094802;28;20256;-74
2022/04/29 01:02:38;;;;;;;30.35;28.45;;;8.80;82.40;;;;;;5095222;28;20294;-74
2022/04/29 01:05:07;;;;;;;29.40;27.60;;;8.80;82.50;;;;;;5095118;28;20220;-74
2022/04/29 01:07:35;;;;;;;29.38;27.58;;;8.80;82.40;;;;;;5095109;28;20289;-74
2022/04/29 01:10:03;;;;;;;28.23;26.52;;;8.80;83.60;;;;;;5094671;28;20588;-74
2022/04/29 01:12:35;;;;;;;29.92;28.13;;;8.80;82.60;;;;;;5094931;28;20683;-74
2022/04/29 01:15:07;;;;;;;30.05;28.17;;;8.80;82.40;;;;;;5095191;28;20677;-74
2022/04/29 01:17:35;;;;;;;30.13;27.80;;;8.80;82.30;;;;;;5094942;28;20705;-74
2022/04/29 01:20:03;;;;;;;30.02;28.20;;;8.70;82.30;;;;;;5094486;28;20193;-74
2022/04/29 01:22:32;;;;;;;31.17;29.27;;;8.80;82.20;;;;;;5095375;28;20205;-73
2022/04/29 01:25:00;;;;;;;29.55;27.77;;;8.80;82.20;;;;;;5099719;28;20219;-74
2022/04/29 01:27:27;;;;;;;30.20;28.50;;;8.70;82.40;;;;;;5101803;28;20211;-74
2022/04/29 01:29:59;;;;;;;30.02;27.92;;;8.70;82.70;;;;;;5102722;28;20279;-74
2022/04/29 01:32:26;;;;;;;30.48;28.52;;;8.60;82.70;;;;;;5097050;28;20249;-74
2022/04/29 01:34:53;;;;;;;30.75;28.70;;;8.60;82.90;;;;;;5094571;28;20733;-74
2022/04/29 01:37:20;;;;;;;30.08;28.27;;;8.60;82.60;;;;;;5094765;28;20559;-74
2022/04/29 01:39:48;;;;;;;32.72;30.73;;;8.60;82.70;;;;;;5093902;28;20232;-74
2022/04/29 01:42:15;;;;;;;31.17;29.10;;;8.50;82.90;;;;;;5094683;28;20218;-74
2022/04/29 01:44:42;;;;;;;29.90;28.00;;;8.50;83.30;;;;;;5094241;28;20303;-74
2022/04/29 01:47:09;;;;;;;30.63;28.52;;;8.40;83.40;;;;;;5093123;28;20207;-74
2022/04/29 01:49:36;;;;;;;30.77;28.80;;;8.50;83.30;;;;;;5093885;28;20200;-74
2022/04/29 01:52:04;;;;;;;30.85;28.75;;;8.50;83.40;;;;;;5094415;28;20222;-74
2022/04/29 01:54:30;;;;;;;30.55;28.55;;;8.40;83.50;;;;;;5094383;28;20222;-74
2022/04/29 01:56:59;;;;;;;29.88;27.95;;;8.30;83.70;;;;;;5094179;28;20192;-73
2022/04/29 01:59:26;;;;;;;30.55;28.40;;;8.30;83.40;;;;;;5093639;28;20318;-74
2022/04/29 02:01:53;;;;;;;30.35;28.55;;;8.20;84.00;;;;;;5093979;28;20194;-73
2022/04/29 02:04:20;;;;;;;30.65;28.85;;;8.20;84.50;;;;;;5094251;28;20225;-74
2022/04/29 02:06:47;;;;;;;31.25;29.05;;;8.20;84.40;;;;;;5093828;28;20197;-73
2022/04/29 02:09:14;;;;;;;32.00;29.35;;;8.30;84.30;;;;;;5093724;28;20300;-74
2022/04/29 02:12:03;;;;;;;30.73;28.88;;;8.30;83.90;;;;;;5094111;28;20222;-74
2022/04/29 02:14:29;;;;;;;32.63;30.50;;;8.20;83.90;;;;;;5093786;28;20216;-73
2022/04/29 02:16:57;;;;;;;30.00;28.20;;;8.30;83.80;;;;;;5093855;28;20615;-74
2022/04/29 02:19:24;;;;;;;31.52;29.63;;;8.40;83.10;;;;;;5093318;28;20199;-74
2022/04/29 02:21:51;;;;;;;31.33;29.38;;;8.30;82.90;;;;;;5093787;28;20221;-74
2022/04/29 02:24:18;;;;;;;30.65;28.65;;;8.30;83.00;;;;;;5093552;28;20228;-74
2022/04/29 02:26:45;;;;;;;31.35;29.45;;;8.30;83.20;;;;;;5093226;28;20211;-73
2022/04/29 02:29:12;;;;;;;31.67;29.58;;;8.30;83.30;;;;;;5092831;28;20198;-74
2022/04/29 02:31:41;;;;;;;31.70;29.60;;;8.20;83.40;;;;;;5093381;28;20304;-74
2022/04/29 02:34:07;;;;;;;30.17;28.42;;;8.20;83.80;;;;;;5093340;28;20306;-74
2022/04/29 02:36:34;;;;;;;30.77;28.77;;;8.10;84.10;;;;;;5093506;28;20312;-74
2022/04/29 02:39:03;;;;;;;30.35;28.33;;;8.10;84.20;;;;;;5093175;28;20544;-74
2022/04/29 02:41:30;;;;;;;29.25;27.35;;;8.10;84.20;;;;;;5093161;28;20192;-74
2022/04/29 02:43:57;;;;;;;31.63;29.40;;;8.10;84.10;;;;;;5093270;28;20713;-74
2022/04/29 02:46:23;;;;;;;31.95;29.85;;;8.10;84.10;;;;;;5093465;28;20206;-74
2022/04/29 02:48:52;;;;;;;31.13;29.13;;;8.00;84.20;;;;;;5093061;28;20213;-74
2022/04/29 02:51:19;;;;;;;30.80;28.88;;;7.90;84.80;;;;;;5092546;28;20318;-74
2022/04/29 02:53:46;;;;;;;33.88;31.73;;;7.80;85.00;;;;;;5093110;28;20309;-74
2022/04/29 02:56:12;;;;;;;31.60;29.38;;;7.80;85.30;;;;;;5093137;28;20556;-74
2022/04/29 02:58:39;;;;;;;32.67;30.58;;;7.80;85.40;;;;;;5092661;28;20205;-74
2022/04/29 03:01:06;;;;;;;31.67;29.63;;;7.80;85.20;;;;;;5092651;28;20282;-74
2022/04/29 03:03:33;;;;;;;30.77;28.58;;;7.90;84.90;;;;;;5092969;28;20311;-74
2022/04/29 03:06:01;;;;;;;32.30;30.08;;;7.90;84.70;;;;;;5092894;28;20255;-74
2022/04/29 03:08:28;;;;;;;34.15;31.40;;;7.80;84.70;;;;;;5092849;28;20198;-74
2022/04/29 03:10:55;;;;;;;31.00;29.10;;;7.70;85.20;;;;;;5092340;28;20219;-73
2022/04/29 03:13:22;;;;;;;30.92;29.02;;;7.70;85.30;;;;;;5092535;28;20230;-74
2022/04/29 03:15:49;;;;;;;32.40;30.23;;;7.80;85.00;;;;;;5092608;28;20290;-74
2022/04/29 03:18:20;;;;;;;34.17;31.73;;;7.80;85.10;;;;;;5092656;28;20202;-74
2022/04/29 03:20:49;;;;;;;33.28;30.98;;;7.70;85.30;;;;;;5092075;28;20193;-74
2022/04/29 03:23:17;;;;;;;31.58;29.67;;;7.60;85.60;;;;;;5092572;28;20225;-74
2022/04/29 03:25:44;;;;;;;31.70;29.50;;;7.70;85.00;;;;;;5092045;28;20294;-74
2022/04/29 03:28:11;;;;;;;32.22;30.10;;;7.60;85.30;;;;;;5092661;28;20211;-74
2022/04/29 03:30:38;;;;;;;35.13;32.92;;;7.60;85.70;;;;;;5091875;28;20201;-74
2022/04/29 03:33:06;;;;;;;33.00;30.80;;;7.60;85.80;;;;;;5092756;28;20213;-73
2022/04/29 03:35:39;;;;;;;32.97;30.60;;;7.60;85.70;;;;;;5092326;28;20553;-74
2022/04/29 03:38:06;;;;;;;32.58;30.58;;;7.50;85.60;;;;;;5092576;28;20202;-74
2022/04/29 03:40:35;;;;;;;31.90;29.85;;;7.30;86.20;;;;;;5092224;28;20212;-74
2022/04/29 03:43:02;;;;;;;31.30;29.20;;;7.40;86.20;;;;;;5096695;28;20221;-74
2022/04/29 03:45:30;;;;;;;31.77;29.55;;;7.50;86.20;;;;;;5097748;28;20256;-73
2022/04/29 03:47:57;;;;;;;32.60;30.38;;;7.50;86.10;;;;;;5092735;28;20686;-74
2022/04/29 03:50:25;;;;;;;32.35;30.40;;;7.50;85.80;;;;;;5092002;28;20205;-73
2022/04/29 03:52:53;;;;;;;33.30;31.00;;;7.50;86.00;;;;;;5092049;28;20218;-74
2022/04/29 03:55:21;;;;;;;33.20;31.00;;;7.60;85.70;;;;;;5092209;28;20205;-74
2022/04/29 03:57:49;;;;;;;31.15;28.85;;;7.60;85.40;;;;;;5091886;28;20204;-74
2022/04/29 04:00:17;;;;;;;32.08;29.88;;;7.60;85.30;;;;;;5091444;28;20286;-74
2022/04/29 04:02:44;;;;;;;35.20;32.95;;;7.50;85.60;;;;;;5092372;28;20201;-74
2022/04/29 04:05:11;;;;;;;32.42;30.23;;;7.50;85.80;;;;;;5092338;28;20196;-74
2022/04/29 04:07:39;;;;;;;31.90;29.80;;;7.40;86.30;;;;;;5092220;28;20596;-74
2022/04/29 04:10:07;;;;;;;33.92;31.70;;;7.50;85.80;;;;;;5093140;28;20203;-74
2022/04/29 04:12:41;;;;;;;33.38;31.27;;;7.40;85.80;;;;;;5096035;28;20569;-74
2022/04/29 04:15:11;;;;;;;31.73;29.52;;;7.40;86.30;;;;;;5096254;28;20222;-74
2022/04/29 04:17:39;;;;;;;32.42;30.42;;;7.50;86.10;;;;;;5096127;28;20194;-74
2022/04/29 04:20:08;;;;;;;31.83;29.73;;;7.40;86.10;;;;;;5095402;28;20288;-74
2022/04/29 04:22:35;;;;;;;32.90;30.70;;;7.40;86.30;;;;;;5096102;28;20192;-74
2022/04/29 04:25:03;;;;;;;34.17;31.90;;;7.40;86.30;;;;;;5095607;28;20217;-74
2022/04/29 04:27:31;;;;;;;34.53;32.15;;;7.50;86.20;;;;;;5095920;28;20206;-74
2022/04/29 04:29:58;;;;;;;32.63;30.45;;;7.60;85.70;;;;;;5095182;28;20528;-74
2022/04/29 04:32:26;;;;;;;33.55;31.35;;;7.80;85.20;;;;;;5095684;28;20588;-74
2022/04/29 04:34:54;;;;;;;33.38;31.17;;;7.80;84.60;;;;;;5095749;28;20577;-74
2022/04/29 04:37:22;;;;;;;33.80;31.50;;;7.90;84.50;;;;;;5095574;28;20687;-74
2022/04/29 04:39:49;;;;;;;34.95;32.55;;;8.00;84.20;;;;;;5095103;28;20658;-74
2022/04/29 04:42:16;;;;;;;33.90;31.55;;;8.00;84.10;;;;;;5095609;28;20190;-74
2022/04/29 04:44:43;;;;;;;32.22;29.98;;;8.00;84.00;;;;;;5095587;28;20736;-74
2022/04/29 04:47:10;;;;;;;35.00;32.40;;;8.00;84.10;;;;;;5095577;28;20272;-74
2022/04/29 04:49:38;;;;;;;33.05;31.00;;;8.10;84.00;;;;;;5095131;28;20195;-74
2022/04/29 04:52:06;;;;;;;32.38;30.27;;;8.10;83.90;;;;;;5095181;28;20231;-74
2022/04/29 04:54:33;;;;;;;33.72;31.23;;;8.20;83.90;;;;;;5095410;28;20230;-74
2022/04/29 04:57:00;;;;;;;32.38;30.15;;;8.30;83.30;;;;;;5095471;28;20199;-74
2022/04/29 04:59:27;;;;;;;32.40;30.35;;;8.40;82.70;;;;;;5094804;28;20231;-74
2022/04/29 05:01:54;;;;;;;31.23;29.13;;;8.40;82.50;;;;;;5095157;28;20195;-74
2022/04/29 05:04:21;;;;;;;32.20;30.20;;;8.50;82.30;;;;;;5095218;28;20707;-74
2022/04/29 05:06:49;;;;;;;33.95;31.00;;;8.50;82.20;;;;;;5095037;28;20210;-74
2022/04/29 05:09:16;;;;;;;35.30;32.85;;;8.70;81.90;;;;;;5094670;28;20202;-74
2022/04/29 05:11:43;;;;;;;32.42;30.13;;;8.70;81.80;;;;;;5094961;28;20229;-74
2022/04/29 05:14:10;;;;;;;33.95;31.80;;;8.80;81.80;;;;;;5095134;28;20219;-74
2022/04/29 05:16:37;;;;;;;35.20;32.80;;;9.00;81.30;;;;;;5094949;28;20196;-74
2022/04/29 05:19:03;;;;;;;33.17;30.88;;;9.00;80.90;;;;;;5094723;28;20322;-74
2022/04/29 05:21:30;;;;;;;33.78;31.67;;;9.00;80.60;;;;;;5094462;28;20189;-74
2022/04/29 05:23:59;;;;;;;33.20;30.90;;;9.10;80.20;;;;;;5094848;28;20216;-74
2022/04/29 05:26:25;;;;;;;34.03;31.80;;;9.20;79.90;;;;;;5094190;28;20236;-74
2022/04/29 05:28:52;;;;;;;34.15;31.95;;;9.20;79.80;;;;;;5094943;28;20196;-74
2022/04/29 05:31:19;;;;;;;33.75;31.65;;;9.30;79.80;;;;;;5094139;28;20205;-74
2022/04/29 05:33:47;;;;;;;34.22;31.92;;;9.40;79.40;;;;;;5094638;28;20222;-74
2022/04/29 05:36:14;;;;;;;32.33;29.70;;;9.60;79.20;;;;;;5094497;28;20282;-74
2022/04/29 05:44:11;;;;;;;32.03;29.98;;;10.00;77.50;;;;;;5094341;28;20222;-74
2022/04/29 05:46:38;;;;;;;33.25;30.95;;;10.00;77.60;;;;;;5094432;28;20659;-74
2022/04/29 05:49:05;;;;;;;34.35;31.92;;;10.10;77.50;;;;;;5094278;28;20200;-74
2022/04/29 05:51:33;;;;;;;32.45;30.40;;;10.30;77.20;;;;;;5093993;28;20562;-74
2022/04/29 05:54:01;;;;;;;33.90;31.70;;;10.40;77.00;;;;;;5094197;28;20288;-74
2022/04/29 05:56:29;;;;;;;34.30;31.60;;;10.50;76.60;;;;;;5094172;28;20200;-74
2022/04/29 05:58:56;;;;;;;35.65;32.80;;;10.70;76.10;;;;;;5094148;28;20291;-74
2022/04/29 06:01:23;;;;;;;33.90;31.70;;;10.80;75.30;;;;;;5093983;28;20657;-74
2022/04/29 06:03:50;;;;;;;34.33;31.73;;;10.80;75.30;;;;;;5094567;28;20962;-74
2022/04/29 06:06:16;;;;;;;35.63;32.80;;;11.00;75.10;;;;;;5100871;28;20453;-74
2022/04/29 06:08:43;;;;;;;35.33;32.93;;;11.20;74.50;;;;;;5101975;28;20457;-74
2022/04/29 06:11:13;;;;;;;35.40;32.97;;;11.30;74.40;;;;;;5100353;28;20453;-74
2022/04/29 06:13:42;;;;;;;35.97;32.93;;;11.40;73.70;;;;;;5096937;28;21063;-74
2022/04/29 06:16:10;;;;;;;33.83;31.43;;;11.60;73.00;;;;;;5094146;28;20457;-74
2022/04/29 06:18:37;;;;;;;36.00;33.67;;;11.70;72.10;;;;;;5093742;28;20453;-74
2022/04/29 06:21:04;;;;;;;36.37;33.97;;;11.90;71.30;;;;;;5093243;28;20466;-74
2022/04/29 06:23:31;;;;;;;35.70;33.23;;;12.00;70.80;;;;;;5093704;28;20465;-74
2022/04/29 06:25:58;;;;;;;35.17;32.67;;;12.20;70.20;;;;;;5093294;28;20466;-74
2022/04/29 06:28:25;;;;;;;34.93;32.57;;;12.40;69.30;;;;;;5093663;28;20457;-73
2022/04/29 06:30:53;;;;;;;36.43;34.00;;;12.70;67.90;;;;;;5093010;28;20464;-74
2022/04/29 06:33:20;;;;;;;36.80;34.40;;;12.80;67.30;;;;;;5092776;28;20488;-74
2022/04/29 06:35:49;;;;;;;34.40;32.20;;;13.00;66.90;;;;;;5093580;28;20541;-74
2022/04/29 06:38:17;;;;;;;34.77;32.47;;;13.10;66.70;;;;;;5093431;28;20502;-74
2022/04/29 06:40:44;;;;;;;35.67;33.20;;;13.30;66.50;;;;;;5093076;28;20461;-74
2022/04/29 06:43:11;;;;;;;35.83;33.47;;;13.50;65.70;;;;;;5093276;28;20472;-74
2022/04/29 06:45:38;;;;;;;35.70;33.40;;;13.90;65.00;;;;;;5093370;28;20529;-74
2022/04/29 06:48:07;;;;;;;35.23;32.63;;;14.10;64.20;;;;;;5093372;28;20450;-74
2022/04/29 06:50:34;;;;;;;35.80;33.50;;;14.20;63.80;;;;;;5092546;28;20817;-74
2022/04/29 06:53:01;;;;;;;37.83;35.13;;;14.30;63.40;;;;;;5093104;28;20505;-74
2022/04/29 06:55:28;;;;;;;35.03;32.73;;;14.60;63.10;;;;;;5093052;28;20576;-74
2022/04/29 06:57:55;;;;;;;36.50;34.17;;;14.80;61.80;;;;;;5093135;28;20532;-74
2022/04/29 07:00:22;;;;;;;35.47;33.03;;;15.00;61.30;;;;;;5092542;28;20450;-74
2022/04/29 07:02:49;;;;;;;39.90;37.03;;;15.20;61.00;;;;;;5092923;28;20799;-74
2022/04/29 07:05:18;;;;;;;38.57;35.80;;;15.50;60.80;;;;;;5093049;28;20453;-74
2022/04/29 07:07:49;;;;;;;36.70;33.90;;;15.60;59.90;;;;;;5092843;28;20449;-74
2022/04/29 07:10:16;;;;;;;38.50;35.47;;;15.70;59.90;;;;;;5092488;28;20935;-74
2022/04/29 07:12:43;;;;;;;38.67;35.90;;;15.90;59.70;;;;;;5092850;28;20485;-75
2022/04/29 07:15:11;;;;;;;38.17;35.07;;;16.00;59.40;;;;;;5092771;28;20552;-74
2022/04/29 07:17:38;;;;;;;38.50;35.60;;;15.90;59.70;;;;;;5092739;28;20499;-74
2022/04/29 07:20:07;;;;;;;39.37;36.37;;;15.80;59.80;;;;;;5092096;28;20892;-74
2022/04/29 07:22:38;;;;;;;38.57;35.73;;;15.80;60.20;;;;;;5092698;28;20441;-74
2022/04/29 07:25:06;;;;;;;39.00;35.60;;;16.00;59.80;;;;;;5092187;28;20469;-74
2022/04/29 07:27:33;;;;;;;38.00;34.90;;;16.20;59.20;;;;;;5092556;28;20477;-74
2022/04/29 07:30:00;;;;;;;37.80;34.90;;;16.20;58.80;;;;;;5092106;28;20476;-74
2022/04/29 07:32:28;;;;;;;38.43;34.90;;;16.20;59.00;;;;;;5092244;28;20478;-74
2022/04/29 07:43:10;;;;;;;38.40;35.17;;;16.60;58.50;;;;;;5092194;28;20560;-74
2022/04/29 07:45:38;;;;;;;35.50;33.00;;;16.90;57.30;;;;;;5091439;28;20446;-74
2022/04/29 07:48:06;;;;;;;39.87;37.03;;;16.90;56.70;;;;;;5092459;28;20456;-74
2022/04/29 07:50:33;;;;;;;36.80;34.13;;;16.90;56.60;;;;;;5091994;28;20453;-75
2022/04/29 07:53:03;;;;;;;37.37;34.50;;;17.00;56.10;;;;;;5092110;28;20886;-75
2022/04/29 07:55:30;;;;;;;36.03;33.30;;;17.00;56.00;;;;;;5092217;28;20455;-74
2022/04/29 07:57:57;;;;;;;36.40;33.40;;;16.90;55.90;;;;;;5092199;28;20453;-75
2022/04/29 08:00:24;;;;;;;37.33;34.63;;;16.90;55.60;;;;;;5091610;28;20457;-75
2022/04/29 08:02:51;;;;;;;39.13;36.47;;;16.90;55.60;;;;;;5092041;28;20860;-75
2022/04/29 08:05:19;;;;;;;37.20;34.20;;;16.80;56.00;;;;;;5092079;28;21011;-75
2022/04/29 08:07:47;;;;;;;36.47;33.90;;;16.70;56.00;;;;;;5091933;28;20943;-75
2022/04/29 08:10:16;;;;;;;36.00;33.40;;;16.60;56.70;;;;;;5091390;28;20453;-74
2022/04/29 08:12:45;;;;;;;37.03;34.20;;;16.40;57.20;;;;;;5091997;28;21022;-74
2022/04/29 08:15:12;;;;;;;37.87;34.97;;;16.30;57.30;;;;;;5091980;28;20935;-75
2022/04/29 08:17:39;;;;;;;39.63;36.40;;;16.20;57.50;;;;;;5091972;28;20453;-74
2022/04/29 08:20:08;;;;;;;39.13;36.17;;;16.10;58.00;;;;;;5091511;28;20446;-74
2022/04/29 08:22:36;;;;;;;37.60;34.90;;;16.20;57.60;;;;;;5091939;28;20815;-74
2022/04/29 08:25:03;;;;;;;37.60;34.73;;;16.20;58.00;;;;;;5091695;28;20473;-74
2022/04/29 08:27:32;;;;;;;37.70;35.03;;;16.30;57.60;;;;;;5091714;28;20466;-75
2022/04/29 08:29:59;;;;;;;37.50;34.80;;;16.40;56.90;;;;;;5091240;28;20446;-75
2022/04/29 08:32:26;;;;;;;36.90;34.20;;;16.40;56.90;;;;;;5091691;28;20985;-75
2022/04/29 08:34:55;;;;;;;36.23;33.23;;;16.60;55.60;;;;;;5091819;28;20556;-75
2022/04/29 08:37:22;;;;;;;37.77;34.60;;;16.90;54.50;;;;;;5091871;28;20511;-75
2022/04/29 08:39:49;;;;;;;36.93;34.30;;;16.70;54.90;;;;;;5091362;28;20545;-75
2022/04/29 08:42:19;;;;;;;34.53;32.23;;;16.70;55.00;;;;;;5091777;28;20537;-75
2022/04/29 08:44:49;;;;;;;34.70;32.30;;;16.90;53.30;;;;;;5091674;28;20476;-75
2022/04/29 08:47:16;;;;;;;34.13;31.73;;;17.00;53.10;;;;;;5091734;28;20450;-75
2022/04/29 08:49:46;;;;;;;35.37;32.87;;;17.30;51.60;;;;;;5091126;28;20454;-75
2022/04/29 08:52:14;;;;;;;34.40;32.10;;;17.50;50.10;;;;;;5091795;28;20449;-74
2022/04/29 09:00:15;;;;;;;34.93;32.30;;;18.20;50.20;;;;;;5094803;28;20440;-74
2022/04/29 09:02:43;;;;;;;34.53;32.20;;;18.50;49.60;;;;;;5095387;28;20945;-75
2022/04/29 09:05:11;;;;;;;35.97;33.37;;;18.70;49.00;;;;;;5095336;28;20495;-75
2022/04/29 09:07:57;;;;;;;34.10;31.47;;;18.90;48.80;;;;;;5095146;28;20544;-75
2022/04/29 09:10:26;;;;;;;34.40;32.00;;;19.10;48.30;;;;;;5094618;28;20452;-75
2022/04/29 09:12:53;;;;;;;34.37;31.97;;;19.10;48.60;;;;;;5095142;28;20469;-75
2022/04/29 09:15:23;;;;;;;32.57;30.37;;;19.20;48.60;;;;;;5095138;28;20540;-75
2022/04/29 09:17:51;;;;;;;32.23;30.00;;;19.40;46.10;;;;;;5094931;28;20483;-75
2022/04/29 09:20:21;;;;;;;36.27;33.77;;;19.70;44.50;;;;;;5094485;28;20813;-75
2022/04/29 09:22:50;;;;;;;34.50;31.80;;;19.60;46.90;;;;;;5095059;28;20811;-75
2022/04/29 09:25:18;;;;;;;32.13;30.20;;;19.70;45.00;;;;;;5094419;28;20459;-75
2022/04/29 09:27:58;;;;;;;31.87;29.77;;;19.80;43.70;;;;;;5094920;28;20537;-75
2022/04/29 09:30:38;;;;;;;30.83;28.83;;;19.90;43.70;;;;;;5094226;28;20449;-75
2022/04/29 09:33:07;;;;;;;31.17;28.97;;;20.40;42.10;;;;;;5094505;28;21017;-75
2022/04/29 09:35:41;;;;;;;35.10;32.80;;;20.70;41.30;;;;;;5094726;28;20545;-75
2022/04/29 09:40:53;;;;;;;33.10;30.60;;;20.30;41.80;;;;;;5094319;28;20471;-75
2022/04/29 09:43:40;;;;;;;30.80;28.73;;;20.50;43.40;;;;;;5094714;28;20475;-75
2022/04/29 09:46:12;;;;;;;34.40;32.00;;;21.00;43.00;;;;;;5094602;28;20464;-75
2022/04/29 09:49:03;;;;;;;33.97;31.47;;;21.20;42.90;;;;;;5094472;28;20450;-75
2022/04/29 09:51:48;;;;;;;33.23;30.93;;;21.20;42.70;;;;;;5094178;28;20458;-75
2022/04/29 09:54:19;;;;;;;32.50;30.40;;;20.90;42.90;;;;;;5094043;28;20534;-75
2022/04/29 09:56:47;;;;;;;34.40;31.40;;;21.10;43.00;;;;;;5094238;28;20803;-75
2022/04/29 09:59:14;;;;;;;32.40;30.40;;;21.00;42.80;;;;;;5093911;28;20485;-75
2022/04/29 10:01:43;;;;;;;31.40;29.40;;;20.90;42.80;;;;;;5094350;28;20848;-75
2022/04/29 10:04:11;;;;;;;30.50;28.70;;;20.70;43.00;;;;;;5094118;28;20457;-75
2022/04/29 10:06:40;;;;;;;32.73;30.43;;;20.40;43.30;;;;;;5093741;28;20488;-75
2022/04/29 10:09:11;;;;;;;32.07;29.77;;;20.70;43.10;;;;;;5093258;28;20465;-75
2022/04/29 10:11:40;;;;;;;31.40;29.20;;;20.90;42.70;;;;;;5094011;28;20449;-75
2022/04/29 10:14:10;;;;;;;31.67;29.57;;;20.80;42.60;;;;;;5093935;28;20489;-75
2022/04/29 10:16:39;;;;;;;31.07;29.03;;;20.50;42.90;;;;;;5094089;28;20449;-75
2022/04/29 10:22:03;;;;;;;29.83;27.73;;;20.60;42.00;;;;;;5093977;28;20432;-75
2022/04/29 10:24:30;;;;;;;29.20;27.40;;;20.90;41.00;;;;;;5093834;28;20474;-75
2022/04/29 10:26:58;;;;;;;27.37;25.67;;;21.20;39.30;;;;;;5093066;28;20523;-75
2022/04/29 10:29:26;;;;;;;32.60;30.60;;;21.40;38.30;;;;;;5093090;28;20977;-75
2022/04/29 10:32:06;;;;;;;30.57;28.80;;;20.90;38.30;;;;;;5093306;28;20457;-75
2022/04/29 10:34:35;;;;;;;29.33;27.20;;;20.90;38.60;;;;;;5093628;28;20485;-75
2022/04/29 10:37:03;;;;;;;31.47;29.67;;;21.00;38.80;;;;;;5093498;28;20838;-75
2022/04/29 10:39:29;;;;;;;30.80;28.50;;;21.10;38.20;;;;;;5092943;28;21006;-75
2022/04/29 10:42:05;;;;;;;29.00;27.20;;;21.00;38.00;;;;;;5093549;28;20540;-75
2022/04/29 10:44:32;;;;;;;30.57;28.77;;;21.00;38.00;;;;;;5093416;28;20557;-75
2022/04/29 10:47:38;;;;;;;33.30;31.23;;;21.00;37.70;;;;;;5093443;28;20449;-75
2022/04/29 10:50:39;;;;;;;32.13;30.13;;;20.70;37.80;;;;;;5092868;28;20536;-76
2022/04/29 10:53:07;;;;;;;30.30;28.50;;;20.20;38.00;;;;;;5070449;28;20495;-74
2022/04/29 10:55:34;;;;;;;30.77;28.97;;;20.60;38.10;;;;;;5093127;28;20457;-75
2022/04/29 10:58:06;;;;;;;30.00;28.30;;;21.00;37.50;;;;;;5093367;28;20499;-75
2022/04/29 11:00:33;;;;;;;31.53;29.70;;;21.30;37.60;;;;;;5092448;28;20878;-76
2022/04/29 11:03:38;;;;;;;31.30;29.50;;;21.70;37.00;;;;;;5093046;28;20540;-74
2022/04/29 11:06:12;;;;;;;29.00;27.30;;;22.10;36.90;;;;;;5093052;28;20798;-75
2022/04/29 11:08:39;;;;;;;29.33;27.53;;;22.30;36.50;;;;;;5092918;28;20454;-74
2022/04/29 11:11:07;;;;;;;29.43;27.53;;;22.50;35.70;;;;;;5092291;28;20450;-74
2022/04/29 11:13:37;;;;;;;30.57;28.67;;;22.60;35.80;;;;;;5092833;28;20488;-74
2022/04/29 11:16:11;;;;;;;30.47;28.67;;;22.60;35.80;;;;;;5092918;28;20838;-74
2022/04/29 11:18:40;;;;;;;30.57;28.47;;;22.10;35.90;;;;;;5092545;28;20528;-74
2022/04/29 11:26:46;;;;;;;31.03;29.20;;;22.30;35.80;;;;;;5098951;28;20454;-74
2022/04/29 11:29:13;;;;;;;29.90;27.93;;;22.70;35.70;;;;;;5102974;28;20440;-74
2022/04/29 11:31:41;;;;;;;29.77;27.80;;;23.10;35.80;;;;;;5093418;28;20445;-74
2022/04/29 11:34:09;;;;;;;28.90;27.10;;;23.30;35.10;;;;;;5092255;28;20477;-74
2022/04/29 11:36:36;;;;;;;32.47;30.37;;;23.40;35.20;;;;;;5092450;28;20457;-74
2022/04/29 11:39:09;;;;;;;30.90;28.90;;;23.00;35.10;;;;;;5092183;28;20535;-74
2022/04/29 11:41:36;;;;;;;30.93;29.03;;;22.90;35.00;;;;;;5092447;28;20450;-74
2022/04/29 11:44:03;;;;;;;30.00;27.97;;;23.30;35.40;;;;;;5092578;28;20553;-74
2022/04/29 11:46:31;;;;;;;31.20;28.87;;;23.60;34.80;;;;;;5092306;28;20446;-74
2022/04/29 11:49:00;;;;;;;29.70;28.00;;;23.90;34.80;;;;;;5092124;28;21002;-74
2022/04/29 11:51:28;;;;;;;31.77;29.87;;;23.90;34.30;;;;;;5092017;28;20460;-74
2022/04/29 11:53:57;;;;;;;30.60;28.60;;;24.10;34.90;;;;;;5092184;28;20572;-74
2022/04/29 11:56:35;;;;;;;30.53;28.37;;;24.10;34.00;;;;;;5092225;28;20467;-74
2022/04/29 11:59:04;;;;;;;30.37;28.47;;;24.30;34.20;;;;;;5091978;28;20544;-74
2022/04/29 12:01:31;;;;;;;32.90;31.10;;;24.10;33.90;;;;;;5091584;28;20549;-74
2022/04/29 12:03:58;;;;;;;30.00;28.20;;;24.10;33.60;;;;;;5092249;28;20500;-74
2022/04/29 12:06:25;;;;;;;30.40;28.50;;;24.00;33.10;;;;;;5092078;28;20449;-74
2022/04/29 12:08:52;;;;;;;29.43;27.60;;;23.40;34.00;;;;;;5092010;28;20452;-74
2022/04/29 12:11:30;;;;;;;30.33;28.43;;;23.40;35.00;;;;;;5091655;28;20547;-74
2022/04/29 12:13:57;;;;;;;30.90;29.03;;;23.50;34.60;;;;;;5091954;28;20517;-74
2022/04/29 12:16:25;;;;;;;30.63;28.63;;;23.30;34.70;;;;;;5091996;28;20533;-74
2022/04/29 12:18:52;;;;;;;29.60;27.70;;;23.40;35.40;;;;;;5091729;28;20540;-74
2022/04/29 12:21:23;;;;;;;30.03;28.23;;;23.30;34.90;;;;;;5091714;28;20465;-74
2022/04/29 12:23:50;;;;;;;29.63;27.83;;;23.40;35.00;;;;;;5091949;28;20472;-74
2022/04/29 12:26:17;;;;;;;30.20;28.23;;;23.30;34.80;;;;;;5091363;28;21017;-74
2022/04/29 12:28:54;;;;;;;29.90;28.10;;;23.30;34.90;;;;;;5091921;28;20454;-74
2022/04/29 12:36:53;;;;;;;29.03;27.23;;;23.60;34.60;;;;;;5096004;28;20480;-74
2022/04/29 12:39:24;;;;;;;30.13;28.23;;;23.70;34.60;;;;;;5095305;28;20453;-74
2022/04/29 12:41:59;;;;;;;30.07;28.17;;;23.70;34.10;;;;;;5095719;28;20453;-74
2022/04/29 12:47:22;;;;;;;30.30;28.40;;;23.80;33.60;;;;;;5095740;28;20444;-74
2022/04/29 12:49:49;;;;;;;29.70;27.90;;;24.10;34.10;;;;;;5095148;28;20448;-74
2022/04/29 12:52:16;;;;;;;31.53;29.23;;;24.10;33.30;;;;;;5095537;28;20455;-74
2022/04/29 12:54:43;;;;;;;29.30;27.40;;;24.20;33.20;;;;;;5095601;28;20564;-74
2022/04/29 12:57:10;;;;;;;30.40;28.60;;;24.00;33.00;;;;;;5095398;28;20472;-74
2022/04/29 12:59:39;;;;;;;32.37;30.33;;;23.50;33.00;;;;;;5094805;28;20950;-74
2022/04/29 13:02:07;;;;;;;31.17;29.37;;;23.60;33.30;;;;;;5095396;28;20485;-74
2022/04/29 13:04:34;;;;;;;30.07;28.37;;;23.60;33.60;;;;;;5095342;28;20480;-74
2022/04/29 13:07:01;;;;;;;31.80;29.90;;;23.70;33.50;;;;;;5095304;28;20449;-74
2022/04/29 13:09:28;;;;;;;28.43;26.67;;;23.60;34.20;;;;;;5094515;28;20456;-74
2022/04/29 13:11:55;;;;;;;30.93;28.93;;;23.70;33.50;;;;;;5095134;28;20869;-74
2022/04/29 13:14:22;;;;;;;29.93;28.03;;;23.80;33.20;;;;;;5095006;28;20485;-74
2022/04/29 13:16:50;;;;;;;31.50;29.70;;;23.90;34.10;;;;;;5095152;28;20491;-75